sensor_id;sensor_type;location;lat;lon;timestamp;P1;durP1;ratioP1;P2;durP2;ratioP2
76610;SDS011;65503;48.534;9.062;2024-01-30T00:00:48;17.58;;;8.25;;
76610;SDS011;65503;48.534;9.062;2024-01-30T00:03:14;16.08;;;8.52;;
76610;SDS011;65503;48.534;9.062;2024-01-30T00:05:41;17.48;;;8.52;;
76610;SDS011;65503;48.534;9.062;2024-01-30T00:08:07;18.13;;;8.30;;
76610;SDS011;65503;48.534;9.062;2024-01-30T00:10:34;18.08;;;8.13;;
76610;SDS011;65503;48.534;9.062;2024-01-30T00:13:01;14.15;;;7.70;;
76610;SDS011;65503;48.534;9.062;2024-01-30T00:15:27;15.88;;;8.38;;
76610;SDS011;65503;48.534;9.062;2024-01-30T00:17:54;20.73;;;10.35;;
76610;SDS011;65503;48.534;9.062;2024-01-30T00:20:20;18.38;;;9.70;;
76610;SDS011;65503;48.534;9.062;2024-01-30T00:22:47;18.52;;;9.13;;
76610;SDS011;65503;48.534;9.062;2024-01-30T00:25:14;16.33;;;9.00;;
76610;SDS011;65503;48.534;9.062;2024-01-30T00:27:40;18.75;;;9.80;;
76610;SDS011;65503;48.534;9.062;2024-01-30T00:30:07;20.38;;;10.15;;
76610;SDS011;65503;48.534;9.062;2024-01-30T00:32:34;19.05;;;9.60;;
76610;SDS011;65503;48.534;9.062;2024-01-30T00:35:01;19.10;;;9.43;;
76610;SDS011;65503;48.534;9.062;2024-01-30T00:37:28;17.45;;;8.27;;
76610;SDS011;65503;48.534;9.062;2024-01-30T00:39:55;18.75;;;9.05;;
76610;SDS011;65503;48.534;9.062;2024-01-30T00:42:21;18.23;;;8.60;;
76610;SDS011;65503;48.534;9.062;2024-01-30T00:44:50;15.05;;;8.00;;
76610;SDS011;65503;48.534;9.062;2024-01-30T00:47:16;19.70;;;9.13;;
76610;SDS011;65503;48.534;9.062;2024-01-30T00:49:43;16.60;;;8.48;;
76610;SDS011;65503;48.534;9.062;2024-01-30T00:52:10;23.98;;;10.98;;
76610;SDS011;65503;48.534;9.062;2024-01-30T00:54:37;21.58;;;10.38;;
76610;SDS011;65503;48.534;9.062;2024-01-30T00:57:04;17.92;;;9.45;;
76610;SDS011;65503;48.534;9.062;2024-01-30T00:59:31;17.02;;;9.35;;
76610;SDS011;65503;48.534;9.062;2024-01-30T01:01:57;18.05;;;9.43;;
76610;SDS011;65503;48.534;9.062;2024-01-30T01:04:24;20.27;;;9.55;;
76610;SDS011;65503;48.534;9.062;2024-01-30T01:06:53;16.08;;;9.00;;
76610;SDS011;65503;48.534;9.062;2024-01-30T01:09:20;19.42;;;11.00;;
76610;SDS011;65503;48.534;9.062;2024-01-30T01:11:46;17.60;;;8.70;;
76610;SDS011;65503;48.534;9.062;2024-01-30T01:14:12;15.57;;;9.20;;
76610;SDS011;65503;48.534;9.062;2024-01-30T01:16:39;16.38;;;7.90;;
76610;SDS011;65503;48.534;9.062;2024-01-30T01:19:05;20.58;;;10.23;;
76610;SDS011;65503;48.534;9.062;2024-01-30T01:21:32;20.27;;;11.02;;
76610;SDS011;65503;48.534;9.062;2024-01-30T01:23:59;26.95;;;12.52;;
76610;SDS011;65503;48.534;9.062;2024-01-30T01:26:25;29.52;;;12.55;;
76610;SDS011;65503;48.534;9.062;2024-01-30T01:28:52;21.90;;;12.52;;
76610;SDS011;65503;48.534;9.062;2024-01-30T01:31:18;24.60;;;12.57;;
76610;SDS011;65503;48.534;9.062;2024-01-30T01:33:45;20.45;;;10.90;;
76610;SDS011;65503;48.534;9.062;2024-01-30T01:36:15;23.67;;;11.77;;
76610;SDS011;65503;48.534;9.062;2024-01-30T01:38:42;24.30;;;12.68;;
76610;SDS011;65503;48.534;9.062;2024-01-30T01:41:09;21.40;;;11.82;;
76610;SDS011;65503;48.534;9.062;2024-01-30T01:43:35;24.98;;;12.35;;
76610;SDS011;65503;48.534;9.062;2024-01-30T01:46:03;24.30;;;11.80;;
76610;SDS011;65503;48.534;9.062;2024-01-30T01:48:34;23.40;;;12.23;;
76610;SDS011;65503;48.534;9.062;2024-01-30T01:51:01;24.10;;;11.68;;
76610;SDS011;65503;48.534;9.062;2024-01-30T01:53:29;20.60;;;12.05;;
76610;SDS011;65503;48.534;9.062;2024-01-30T01:55:55;24.70;;;12.32;;
76610;SDS011;65503;48.534;9.062;2024-01-30T01:58:22;22.90;;;12.85;;
76610;SDS011;65503;48.534;9.062;2024-01-30T02:00:54;25.80;;;13.02;;
76610;SDS011;65503;48.534;9.062;2024-01-30T02:03:23;23.85;;;12.23;;
76610;SDS011;65503;48.534;9.062;2024-01-30T02:05:50;25.45;;;12.55;;
76610;SDS011;65503;48.534;9.062;2024-01-30T02:10:44;18.92;;;9.57;;
76610;SDS011;65503;48.534;9.062;2024-01-30T02:13:10;23.10;;;10.30;;
76610;SDS011;65503;48.534;9.062;2024-01-30T02:15:37;23.40;;;10.48;;
76610;SDS011;65503;48.534;9.062;2024-01-30T02:18:03;18.67;;;9.32;;
76610;SDS011;65503;48.534;9.062;2024-01-30T02:20:30;19.75;;;9.30;;
76610;SDS011;65503;48.534;9.062;2024-01-30T02:28:02;16.42;;;7.70;;
76610;SDS011;65503;48.534;9.062;2024-01-30T02:30:29;15.55;;;7.82;;
76610;SDS011;65503;48.534;9.062;2024-01-30T02:32:56;17.50;;;8.25;;
76610;SDS011;65503;48.534;9.062;2024-01-30T02:35:22;18.08;;;8.93;;
76610;SDS011;65503;48.534;9.062;2024-01-30T02:37:49;18.92;;;8.20;;
76610;SDS011;65503;48.534;9.062;2024-01-30T02:40:15;16.92;;;9.23;;
76610;SDS011;65503;48.534;9.062;2024-01-30T02:42:42;20.95;;;9.00;;
76610;SDS011;65503;48.534;9.062;2024-01-30T02:45:09;20.05;;;8.55;;
76610;SDS011;65503;48.534;9.062;2024-01-30T02:47:36;20.13;;;9.15;;
76610;SDS011;65503;48.534;9.062;2024-01-30T02:50:03;16.92;;;9.27;;
76610;SDS011;65503;48.534;9.062;2024-01-30T02:52:30;17.83;;;8.98;;
76610;SDS011;65503;48.534;9.062;2024-01-30T02:54:57;19.17;;;9.00;;
76610;SDS011;65503;48.534;9.062;2024-01-30T02:57:24;16.15;;;8.30;;
76610;SDS011;65503;48.534;9.062;2024-01-30T02:59:50;19.20;;;8.70;;
76610;SDS011;65503;48.534;9.062;2024-01-30T03:02:17;19.05;;;8.40;;
76610;SDS011;65503;48.534;9.062;2024-01-30T03:04:44;15.93;;;8.05;;
76610;SDS011;65503;48.534;9.062;2024-01-30T03:07:11;17.77;;;8.60;;
76610;SDS011;65503;48.534;9.062;2024-01-30T03:09:37;18.42;;;8.38;;
76610;SDS011;65503;48.534;9.062;2024-01-30T03:12:04;16.77;;;8.88;;
76610;SDS011;65503;48.534;9.062;2024-01-30T03:14:36;16.48;;;8.27;;
76610;SDS011;65503;48.534;9.062;2024-01-30T03:17:03;16.50;;;8.48;;
76610;SDS011;65503;48.534;9.062;2024-01-30T03:19:29;17.13;;;8.25;;
76610;SDS011;65503;48.534;9.062;2024-01-30T03:21:58;17.75;;;8.35;;
76610;SDS011;65503;48.534;9.062;2024-01-30T03:24:25;18.27;;;8.82;;
76610;SDS011;65503;48.534;9.062;2024-01-30T03:26:51;22.15;;;9.43;;
76610;SDS011;65503;48.534;9.062;2024-01-30T03:29:18;18.50;;;9.82;;
76610;SDS011;65503;48.534;9.062;2024-01-30T03:31:44;19.73;;;10.02;;
76610;SDS011;65503;48.534;9.062;2024-01-30T03:34:11;17.88;;;9.25;;
76610;SDS011;65503;48.534;9.062;2024-01-30T03:36:37;19.60;;;9.50;;
76610;SDS011;65503;48.534;9.062;2024-01-30T03:39:04;21.95;;;9.30;;
76610;SDS011;65503;48.534;9.062;2024-01-30T03:41:30;18.33;;;8.73;;
76610;SDS011;65503;48.534;9.062;2024-01-30T03:43:57;19.30;;;8.52;;
76610;SDS011;65503;48.534;9.062;2024-01-30T03:46:24;22.58;;;9.48;;
76610;SDS011;65503;48.534;9.062;2024-01-30T03:48:51;20.10;;;9.10;;
76610;SDS011;65503;48.534;9.062;2024-01-30T03:51:17;17.58;;;8.85;;
76610;SDS011;65503;48.534;9.062;2024-01-30T03:53:44;18.25;;;9.10;;
76610;SDS011;65503;48.534;9.062;2024-01-30T03:56:12;16.20;;;8.75;;
76610;SDS011;65503;48.534;9.062;2024-01-30T03:58:41;15.57;;;7.93;;
76610;SDS011;65503;48.534;9.062;2024-01-30T04:01:12;17.33;;;8.43;;
76610;SDS011;65503;48.534;9.062;2024-01-30T04:03:40;18.88;;;9.02;;
76610;SDS011;65503;48.534;9.062;2024-01-30T04:06:07;18.83;;;9.35;;
76610;SDS011;65503;48.534;9.062;2024-01-30T04:08:34;18.40;;;9.25;;
76610;SDS011;65503;48.534;9.062;2024-01-30T04:11:04;20.00;;;8.80;;
76610;SDS011;65503;48.534;9.062;2024-01-30T04:13:34;19.75;;;9.27;;
76610;SDS011;65503;48.534;9.062;2024-01-30T04:16:00;20.90;;;9.52;;
76610;SDS011;65503;48.534;9.062;2024-01-30T04:18:28;18.75;;;8.73;;
76610;SDS011;65503;48.534;9.062;2024-01-30T04:20:55;20.80;;;9.52;;
76610;SDS011;65503;48.534;9.062;2024-01-30T04:23:22;23.00;;;11.05;;
76610;SDS011;65503;48.534;9.062;2024-01-30T04:25:49;22.17;;;9.98;;
76610;SDS011;65503;48.534;9.062;2024-01-30T04:28:15;21.63;;;10.32;;
76610;SDS011;65503;48.534;9.062;2024-01-30T04:30:42;18.42;;;9.30;;
76610;SDS011;65503;48.534;9.062;2024-01-30T04:33:08;24.83;;;11.75;;
76610;SDS011;65503;48.534;9.062;2024-01-30T04:35:36;32.10;;;13.93;;
76610;SDS011;65503;48.534;9.062;2024-01-30T04:38:03;25.00;;;13.70;;
76610;SDS011;65503;48.534;9.062;2024-01-30T04:40:30;31.40;;;13.68;;
76610;SDS011;65503;48.534;9.062;2024-01-30T04:42:56;28.05;;;13.15;;
76610;SDS011;65503;48.534;9.062;2024-01-30T04:45:23;21.40;;;11.07;;
76610;SDS011;65503;48.534;9.062;2024-01-30T04:47:49;20.70;;;10.38;;
76610;SDS011;65503;48.534;9.062;2024-01-30T04:50:16;21.52;;;11.02;;
76610;SDS011;65503;48.534;9.062;2024-01-30T04:52:43;22.40;;;11.15;;
76610;SDS011;65503;48.534;9.062;2024-01-30T04:55:09;26.27;;;12.85;;
76610;SDS011;65503;48.534;9.062;2024-01-30T04:57:36;24.67;;;12.52;;
76610;SDS011;65503;48.534;9.062;2024-01-30T05:00:03;27.77;;;12.88;;
76610;SDS011;65503;48.534;9.062;2024-01-30T05:02:31;22.80;;;11.25;;
76610;SDS011;65503;48.534;9.062;2024-01-30T05:04:58;20.05;;;10.25;;
76610;SDS011;65503;48.534;9.062;2024-01-30T05:07:25;23.95;;;11.20;;
76610;SDS011;65503;48.534;9.062;2024-01-30T05:09:51;24.52;;;11.50;;
76610;SDS011;65503;48.534;9.062;2024-01-30T05:12:21;21.25;;;10.50;;
76610;SDS011;65503;48.534;9.062;2024-01-30T05:14:48;18.48;;;9.63;;
76610;SDS011;65503;48.534;9.062;2024-01-30T05:17:14;20.02;;;10.23;;
76610;SDS011;65503;48.534;9.062;2024-01-30T05:19:43;19.02;;;9.38;;
76610;SDS011;65503;48.534;9.062;2024-01-30T05:22:10;16.88;;;9.10;;
76610;SDS011;65503;48.534;9.062;2024-01-30T05:24:37;17.40;;;9.38;;
76610;SDS011;65503;48.534;9.062;2024-01-30T05:27:03;21.52;;;10.13;;
76610;SDS011;65503;48.534;9.062;2024-01-30T05:29:30;22.77;;;10.10;;
76610;SDS011;65503;48.534;9.062;2024-01-30T05:31:56;21.60;;;10.55;;
76610;SDS011;65503;48.534;9.062;2024-01-30T05:34:23;27.92;;;12.80;;
76610;SDS011;65503;48.534;9.062;2024-01-30T05:36:51;29.02;;;13.40;;
76610;SDS011;65503;48.534;9.062;2024-01-30T05:39:17;27.73;;;13.45;;
76610;SDS011;65503;48.534;9.062;2024-01-30T05:41:44;32.25;;;14.50;;
76610;SDS011;65503;48.534;9.062;2024-01-30T05:44:10;40.08;;;17.63;;
76610;SDS011;65503;48.534;9.062;2024-01-30T05:46:37;32.60;;;14.25;;
76610;SDS011;65503;48.534;9.062;2024-01-30T05:49:04;34.15;;;15.88;;
76610;SDS011;65503;48.534;9.062;2024-01-30T05:51:30;32.92;;;16.00;;
76610;SDS011;65503;48.534;9.062;2024-01-30T05:53:57;32.25;;;14.75;;
76610;SDS011;65503;48.534;9.062;2024-01-30T05:56:23;33.50;;;14.45;;
76610;SDS011;65503;48.534;9.062;2024-01-30T05:58:50;28.30;;;14.98;;
76610;SDS011;65503;48.534;9.062;2024-01-30T06:01:17;47.35;;;23.13;;
76610;SDS011;65503;48.534;9.062;2024-01-30T06:03:43;35.05;;;15.57;;
76610;SDS011;65503;48.534;9.062;2024-01-30T06:06:10;33.15;;;15.70;;
76610;SDS011;65503;48.534;9.062;2024-01-30T06:08:36;36.75;;;16.13;;
76610;SDS011;65503;48.534;9.062;2024-01-30T06:11:03;35.63;;;15.20;;
76610;SDS011;65503;48.534;9.062;2024-01-30T06:13:29;75.85;;;17.83;;
76610;SDS011;65503;48.534;9.062;2024-01-30T06:15:58;32.17;;;13.25;;
76610;SDS011;65503;48.534;9.062;2024-01-30T06:18:24;26.30;;;12.43;;
76610;SDS011;65503;48.534;9.062;2024-01-30T06:20:52;22.95;;;11.63;;
76610;SDS011;65503;48.534;9.062;2024-01-30T06:23:19;23.67;;;11.20;;
76610;SDS011;65503;48.534;9.062;2024-01-30T06:25:45;22.08;;;10.95;;
76610;SDS011;65503;48.534;9.062;2024-01-30T06:28:12;21.70;;;9.98;;
76610;SDS011;65503;48.534;9.062;2024-01-30T06:30:38;20.70;;;10.57;;
76610;SDS011;65503;48.534;9.062;2024-01-30T06:33:05;23.30;;;11.30;;
76610;SDS011;65503;48.534;9.062;2024-01-30T06:35:31;24.70;;;11.57;;
76610;SDS011;65503;48.534;9.062;2024-01-30T06:37:58;23.98;;;10.95;;
76610;SDS011;65503;48.534;9.062;2024-01-30T06:40:25;19.48;;;9.57;;
76610;SDS011;65503;48.534;9.062;2024-01-30T06:42:52;26.85;;;11.57;;
76610;SDS011;65503;48.534;9.062;2024-01-30T06:45:18;21.90;;;11.75;;
76610;SDS011;65503;48.534;9.062;2024-01-30T06:47:45;31.55;;;12.38;;
76610;SDS011;65503;48.534;9.062;2024-01-30T06:50:11;32.38;;;12.30;;
76610;SDS011;65503;48.534;9.062;2024-01-30T06:52:38;89.93;;;15.63;;
76610;SDS011;65503;48.534;9.062;2024-01-30T06:55:04;58.28;;;13.90;;
76610;SDS011;65503;48.534;9.062;2024-01-30T06:57:31;37.50;;;13.18;;
76610;SDS011;65503;48.534;9.062;2024-01-30T06:59:57;36.08;;;14.35;;
76610;SDS011;65503;48.534;9.062;2024-01-30T07:02:24;27.17;;;13.13;;
76610;SDS011;65503;48.534;9.062;2024-01-30T07:04:50;34.75;;;13.68;;
76610;SDS011;65503;48.534;9.062;2024-01-30T07:07:17;30.23;;;12.60;;
76610;SDS011;65503;48.534;9.062;2024-01-30T07:09:44;29.75;;;14.27;;
76610;SDS011;65503;48.534;9.062;2024-01-30T07:12:10;32.97;;;13.80;;
76610;SDS011;65503;48.534;9.062;2024-01-30T07:14:37;26.17;;;12.57;;
76610;SDS011;65503;48.534;9.062;2024-01-30T07:17:04;24.70;;;11.98;;
76610;SDS011;65503;48.534;9.062;2024-01-30T07:19:30;25.65;;;12.05;;
76610;SDS011;65503;48.534;9.062;2024-01-30T07:21:57;28.25;;;14.23;;
76610;SDS011;65503;48.534;9.062;2024-01-30T07:24:23;25.60;;;12.73;;
76610;SDS011;65503;48.534;9.062;2024-01-30T07:26:50;21.15;;;11.75;;
76610;SDS011;65503;48.534;9.062;2024-01-30T07:29:17;24.98;;;12.32;;
76610;SDS011;65503;48.534;9.062;2024-01-30T07:31:44;20.98;;;11.27;;
76610;SDS011;65503;48.534;9.062;2024-01-30T07:34:10;26.77;;;12.00;;
76610;SDS011;65503;48.534;9.062;2024-01-30T07:36:37;20.90;;;11.13;;
76610;SDS011;65503;48.534;9.062;2024-01-30T07:39:05;26.02;;;12.23;;
76610;SDS011;65503;48.534;9.062;2024-01-30T07:41:31;25.23;;;13.77;;
76610;SDS011;65503;48.534;9.062;2024-01-30T07:43:57;27.58;;;13.90;;
76610;SDS011;65503;48.534;9.062;2024-01-30T07:46:24;27.80;;;13.77;;
76610;SDS011;65503;48.534;9.062;2024-01-30T07:48:50;25.50;;;13.52;;
76610;SDS011;65503;48.534;9.062;2024-01-30T07:51:20;30.23;;;13.68;;
76610;SDS011;65503;48.534;9.062;2024-01-30T07:53:46;23.63;;;13.25;;
76610;SDS011;65503;48.534;9.062;2024-01-30T07:56:13;25.30;;;12.95;;
76610;SDS011;65503;48.534;9.062;2024-01-30T07:58:39;21.75;;;11.35;;
76610;SDS011;65503;48.534;9.062;2024-01-30T08:01:06;22.33;;;11.80;;
76610;SDS011;65503;48.534;9.062;2024-01-30T08:03:33;24.42;;;12.35;;
76610;SDS011;65503;48.534;9.062;2024-01-30T08:06:00;23.10;;;12.75;;
76610;SDS011;65503;48.534;9.062;2024-01-30T08:08:27;32.10;;;13.98;;
76610;SDS011;65503;48.534;9.062;2024-01-30T08:10:53;23.92;;;13.93;;
76610;SDS011;65503;48.534;9.062;2024-01-30T08:13:20;27.58;;;14.52;;
76610;SDS011;65503;48.534;9.062;2024-01-30T08:15:46;24.60;;;13.93;;
76610;SDS011;65503;48.534;9.062;2024-01-30T08:18:13;20.88;;;11.60;;
76610;SDS011;65503;48.534;9.062;2024-01-30T08:20:39;21.38;;;11.98;;
76610;SDS011;65503;48.534;9.062;2024-01-30T08:23:06;21.92;;;13.32;;
76610;SDS011;65503;48.534;9.062;2024-01-30T08:25:32;21.98;;;12.95;;
76610;SDS011;65503;48.534;9.062;2024-01-30T08:27:59;20.63;;;10.98;;
76610;SDS011;65503;48.534;9.062;2024-01-30T08:30:26;26.90;;;11.52;;
76610;SDS011;65503;48.534;9.062;2024-01-30T08:32:52;18.02;;;10.25;;
76610;SDS011;65503;48.534;9.062;2024-01-30T08:35:19;17.73;;;10.48;;
76610;SDS011;65503;48.534;9.062;2024-01-30T08:37:45;18.10;;;10.00;;
76610;SDS011;65503;48.534;9.062;2024-01-30T08:40:12;20.77;;;10.43;;
76610;SDS011;65503;48.534;9.062;2024-01-30T08:42:39;15.77;;;8.93;;
76610;SDS011;65503;48.534;9.062;2024-01-30T08:45:05;19.30;;;10.45;;
76610;SDS011;65503;48.534;9.062;2024-01-30T08:47:32;16.02;;;8.88;;
76610;SDS011;65503;48.534;9.062;2024-01-30T08:49:59;16.27;;;9.63;;
76610;SDS011;65503;48.534;9.062;2024-01-30T08:52:26;22.85;;;10.07;;
76610;SDS011;65503;48.534;9.062;2024-01-30T08:54:53;18.25;;;9.70;;
76610;SDS011;65503;48.534;9.062;2024-01-30T08:57:20;19.35;;;10.32;;
76610;SDS011;65503;48.534;9.062;2024-01-30T08:59:47;15.98;;;10.02;;
76610;SDS011;65503;48.534;9.062;2024-01-30T09:02:14;17.23;;;10.65;;
76610;SDS011;65503;48.534;9.062;2024-01-30T09:04:42;18.55;;;10.15;;
76610;SDS011;65503;48.534;9.062;2024-01-30T09:07:09;19.42;;;10.98;;
76610;SDS011;65503;48.534;9.062;2024-01-30T09:09:40;21.30;;;12.40;;
76610;SDS011;65503;48.534;9.062;2024-01-30T09:12:07;20.30;;;12.60;;
76610;SDS011;65503;48.534;9.062;2024-01-30T09:14:36;20.08;;;10.60;;
76610;SDS011;65503;48.534;9.062;2024-01-30T09:17:02;16.35;;;9.27;;
76610;SDS011;65503;48.534;9.062;2024-01-30T09:19:30;14.93;;;8.55;;
76610;SDS011;65503;48.534;9.062;2024-01-30T09:21:57;14.25;;;7.82;;
76610;SDS011;65503;48.534;9.062;2024-01-30T09:24:24;16.70;;;7.35;;
76610;SDS011;65503;48.534;9.062;2024-01-30T09:26:51;13.48;;;7.30;;
76610;SDS011;65503;48.534;9.062;2024-01-30T09:29:17;13.35;;;7.40;;
76610;SDS011;65503;48.534;9.062;2024-01-30T09:31:44;12.30;;;7.32;;
76610;SDS011;65503;48.534;9.062;2024-01-30T09:34:12;13.57;;;7.15;;
76610;SDS011;65503;48.534;9.062;2024-01-30T09:36:39;12.07;;;6.90;;
76610;SDS011;65503;48.534;9.062;2024-01-30T09:39:06;14.75;;;7.65;;
76610;SDS011;65503;48.534;9.062;2024-01-30T09:41:33;11.07;;;6.90;;
76610;SDS011;65503;48.534;9.062;2024-01-30T09:44:08;11.77;;;7.40;;
76610;SDS011;65503;48.534;9.062;2024-01-30T09:46:35;12.98;;;6.97;;
76610;SDS011;65503;48.534;9.062;2024-01-30T09:49:02;15.00;;;8.07;;
76610;SDS011;65503;48.534;9.062;2024-01-30T09:51:29;13.43;;;7.35;;
76610;SDS011;65503;48.534;9.062;2024-01-30T09:53:56;14.32;;;8.25;;
76610;SDS011;65503;48.534;9.062;2024-01-30T09:56:23;14.95;;;8.35;;
76610;SDS011;65503;48.534;9.062;2024-01-30T09:58:50;16.02;;;8.68;;
76610;SDS011;65503;48.534;9.062;2024-01-30T10:01:17;13.50;;;7.25;;
76610;SDS011;65503;48.534;9.062;2024-01-30T10:03:45;16.65;;;9.30;;
76610;SDS011;65503;48.534;9.062;2024-01-30T10:06:12;17.88;;;9.18;;
76610;SDS011;65503;48.534;9.062;2024-01-30T10:08:40;18.23;;;9.77;;
76610;SDS011;65503;48.534;9.062;2024-01-30T10:11:08;20.02;;;8.30;;
76610;SDS011;65503;48.534;9.062;2024-01-30T10:13:34;16.23;;;8.15;;
76610;SDS011;65503;48.534;9.062;2024-01-30T10:16:01;17.33;;;9.25;;
76610;SDS011;65503;48.534;9.062;2024-01-30T10:18:29;15.75;;;8.90;;
76610;SDS011;65503;48.534;9.062;2024-01-30T10:20:55;15.07;;;8.50;;
76610;SDS011;65503;48.534;9.062;2024-01-30T10:23:22;20.15;;;8.70;;
76610;SDS011;65503;48.534;9.062;2024-01-30T10:25:49;16.63;;;8.90;;
76610;SDS011;65503;48.534;9.062;2024-01-30T10:28:17;19.55;;;9.23;;
76610;SDS011;65503;48.534;9.062;2024-01-30T10:30:44;15.70;;;9.30;;
76610;SDS011;65503;48.534;9.062;2024-01-30T10:33:10;18.08;;;9.23;;
76610;SDS011;65503;48.534;9.062;2024-01-30T10:35:37;15.05;;;8.55;;
76610;SDS011;65503;48.534;9.062;2024-01-30T10:38:03;16.48;;;9.00;;
76610;SDS011;65503;48.534;9.062;2024-01-30T10:40:35;18.23;;;9.00;;
76610;SDS011;65503;48.534;9.062;2024-01-30T10:43:03;16.77;;;9.18;;
76610;SDS011;65503;48.534;9.062;2024-01-30T10:45:31;17.38;;;9.02;;
76610;SDS011;65503;48.534;9.062;2024-01-30T10:47:59;17.23;;;9.05;;
76610;SDS011;65503;48.534;9.062;2024-01-30T10:50:27;16.73;;;9.23;;
76610;SDS011;65503;48.534;9.062;2024-01-30T10:52:55;17.60;;;8.20;;
76610;SDS011;65503;48.534;9.062;2024-01-30T10:55:22;17.85;;;8.68;;
76610;SDS011;65503;48.534;9.062;2024-01-30T10:57:50;17.45;;;9.20;;
76610;SDS011;65503;48.534;9.062;2024-01-30T11:00:17;19.10;;;9.05;;
76610;SDS011;65503;48.534;9.062;2024-01-30T11:02:48;13.85;;;7.57;;
76610;SDS011;65503;48.534;9.062;2024-01-30T11:05:15;16.15;;;9.27;;
76610;SDS011;65503;48.534;9.062;2024-01-30T11:07:53;15.60;;;7.75;;
76610;SDS011;65503;48.534;9.062;2024-01-30T11:10:20;14.35;;;7.88;;
76610;SDS011;65503;48.534;9.062;2024-01-30T11:12:47;14.30;;;7.95;;
76610;SDS011;65503;48.534;9.062;2024-01-30T11:15:14;15.55;;;8.77;;
76610;SDS011;65503;48.534;9.062;2024-01-30T11:17:49;18.85;;;9.05;;
76610;SDS011;65503;48.534;9.062;2024-01-30T11:20:27;14.68;;;8.20;;
76610;SDS011;65503;48.534;9.062;2024-01-30T11:22:57;17.17;;;9.38;;
76610;SDS011;65503;48.534;9.062;2024-01-30T11:25:25;15.25;;;9.15;;
76610;SDS011;65503;48.534;9.062;2024-01-30T11:27:53;16.90;;;9.38;;
76610;SDS011;65503;48.534;9.062;2024-01-30T11:30:24;16.77;;;10.10;;
76610;SDS011;65503;48.534;9.062;2024-01-30T11:33:08;15.88;;;10.00;;
76610;SDS011;65503;48.534;9.062;2024-01-30T11:35:38;16.20;;;9.30;;
76610;SDS011;65503;48.534;9.062;2024-01-30T11:38:07;18.75;;;9.63;;
76610;SDS011;65503;48.534;9.062;2024-01-30T11:40:37;15.90;;;9.18;;
76610;SDS011;65503;48.534;9.062;2024-01-30T11:43:05;18.48;;;9.93;;
76610;SDS011;65503;48.534;9.062;2024-01-30T11:45:33;18.58;;;10.07;;
76610;SDS011;65503;48.534;9.062;2024-01-30T11:48:00;19.13;;;9.43;;
76610;SDS011;65503;48.534;9.062;2024-01-30T11:50:30;18.70;;;10.00;;
76610;SDS011;65503;48.534;9.062;2024-01-30T11:52:57;15.18;;;9.05;;
76610;SDS011;65503;48.534;9.062;2024-01-30T11:55:25;17.52;;;9.57;;
76610;SDS011;65503;48.534;9.062;2024-01-30T11:57:55;15.80;;;9.25;;
76610;SDS011;65503;48.534;9.062;2024-01-30T12:00:22;14.80;;;8.88;;
76610;SDS011;65503;48.534;9.062;2024-01-30T12:02:52;17.00;;;9.65;;
76610;SDS011;65503;48.534;9.062;2024-01-30T12:05:22;20.20;;;9.57;;
76610;SDS011;65503;48.534;9.062;2024-01-30T12:07:49;15.95;;;8.52;;
76610;SDS011;65503;48.534;9.062;2024-01-30T12:10:16;17.40;;;10.25;;
76610;SDS011;65503;48.534;9.062;2024-01-30T12:12:47;17.60;;;9.23;;
76610;SDS011;65503;48.534;9.062;2024-01-30T12:15:16;17.00;;;9.45;;
76610;SDS011;65503;48.534;9.062;2024-01-30T12:17:43;19.63;;;10.25;;
76610;SDS011;65503;48.534;9.062;2024-01-30T12:20:10;18.05;;;9.38;;
76610;SDS011;65503;48.534;9.062;2024-01-30T12:22:42;14.25;;;8.05;;
76610;SDS011;65503;48.534;9.062;2024-01-30T12:27:37;13.75;;;8.27;;
76610;SDS011;65503;48.534;9.062;2024-01-30T12:30:08;14.98;;;8.52;;
76610;SDS011;65503;48.534;9.062;2024-01-30T12:32:37;15.15;;;8.25;;
76610;SDS011;65503;48.534;9.062;2024-01-30T12:35:13;14.15;;;8.10;;
76610;SDS011;65503;48.534;9.062;2024-01-30T12:37:42;15.95;;;8.05;;
76610;SDS011;65503;48.534;9.062;2024-01-30T12:40:10;13.93;;;7.95;;
76610;SDS011;65503;48.534;9.062;2024-01-30T12:42:43;12.50;;;7.00;;
76610;SDS011;65503;48.534;9.062;2024-01-30T12:45:16;15.07;;;7.50;;
76610;SDS011;65503;48.534;9.062;2024-01-30T12:47:46;15.02;;;7.75;;
76610;SDS011;65503;48.534;9.062;2024-01-30T12:50:13;19.55;;;8.35;;
76610;SDS011;65503;48.534;9.062;2024-01-30T12:52:42;12.60;;;7.82;;
76610;SDS011;65503;48.534;9.062;2024-01-30T12:55:11;17.38;;;7.50;;
76610;SDS011;65503;48.534;9.062;2024-01-30T12:57:39;15.45;;;9.10;;
76610;SDS011;65503;48.534;9.062;2024-01-30T13:00:05;16.40;;;8.20;;
76610;SDS011;65503;48.534;9.062;2024-01-30T13:02:34;20.55;;;8.90;;
76610;SDS011;65503;48.534;9.062;2024-01-30T13:05:03;16.50;;;9.23;;
76610;SDS011;65503;48.534;9.062;2024-01-30T13:07:30;16.60;;;7.88;;
76610;SDS011;65503;48.534;9.062;2024-01-30T13:09:57;18.08;;;8.80;;
76610;SDS011;65503;48.534;9.062;2024-01-30T13:12:29;18.73;;;8.25;;
76610;SDS011;65503;48.534;9.062;2024-01-30T13:14:58;23.42;;;6.53;;
76610;SDS011;65503;48.534;9.062;2024-01-30T13:17:27;11.82;;;4.85;;
76610;SDS011;65503;48.534;9.062;2024-01-30T13:19:54;11.98;;;4.97;;
76610;SDS011;65503;48.534;9.062;2024-01-30T13:22:27;9.40;;;4.05;;
76610;SDS011;65503;48.534;9.062;2024-01-30T13:24:53;12.80;;;5.55;;
76610;SDS011;65503;48.534;9.062;2024-01-30T13:27:20;16.27;;;8.85;;
76610;SDS011;65503;48.534;9.062;2024-01-30T13:29:47;14.25;;;7.82;;
76610;SDS011;65503;48.534;9.062;2024-01-30T13:32:13;14.70;;;7.53;;
76610;SDS011;65503;48.534;9.062;2024-01-30T13:34:40;13.23;;;6.30;;
76610;SDS011;65503;48.534;9.062;2024-01-30T13:39:34;8.38;;;3.42;;
76610;SDS011;65503;48.534;9.062;2024-01-30T13:42:05;11.63;;;4.57;;
76610;SDS011;65503;48.534;9.062;2024-01-30T13:44:31;13.82;;;6.05;;
76610;SDS011;65503;48.534;9.062;2024-01-30T13:46:58;12.52;;;6.70;;
76610;SDS011;65503;48.534;9.062;2024-01-30T13:49:24;19.83;;;8.63;;
76610;SDS011;65503;48.534;9.062;2024-01-30T13:51:51;16.27;;;8.77;;
76610;SDS011;65503;48.534;9.062;2024-01-30T13:54:20;16.85;;;9.38;;
76610;SDS011;65503;48.534;9.062;2024-01-30T13:56:47;18.48;;;9.05;;
76610;SDS011;65503;48.534;9.062;2024-01-30T13:59:13;16.95;;;9.48;;
76610;SDS011;65503;48.534;9.062;2024-01-30T14:01:40;15.68;;;8.38;;
76610;SDS011;65503;48.534;9.062;2024-01-30T14:04:06;16.52;;;7.55;;
76610;SDS011;65503;48.534;9.062;2024-01-30T14:06:37;16.27;;;8.70;;
76610;SDS011;65503;48.534;9.062;2024-01-30T14:09:15;14.10;;;7.15;;
76610;SDS011;65503;48.534;9.062;2024-01-30T14:11:41;13.98;;;7.10;;
76610;SDS011;65503;48.534;9.062;2024-01-30T14:14:08;13.20;;;6.97;;
76610;SDS011;65503;48.534;9.062;2024-01-30T14:16:35;14.82;;;6.32;;
76610;SDS011;65503;48.534;9.062;2024-01-30T14:19:02;13.88;;;6.15;;
76610;SDS011;65503;48.534;9.062;2024-01-30T14:21:28;20.50;;;5.47;;
76610;SDS011;65503;48.534;9.062;2024-01-30T14:23:55;17.83;;;5.75;;
76610;SDS011;65503;48.534;9.062;2024-01-30T14:26:21;14.27;;;6.05;;
76610;SDS011;65503;48.534;9.062;2024-01-30T14:28:48;13.35;;;6.22;;
76610;SDS011;65503;48.534;9.062;2024-01-30T14:31:15;13.20;;;5.93;;
76610;SDS011;65503;48.534;9.062;2024-01-30T14:33:43;13.13;;;6.13;;
76610;SDS011;65503;48.534;9.062;2024-01-30T14:36:09;13.98;;;7.38;;
76610;SDS011;65503;48.534;9.062;2024-01-30T14:38:36;12.63;;;6.40;;
76610;SDS011;65503;48.534;9.062;2024-01-30T14:41:02;10.82;;;5.40;;